Time;durP1;ratioP1;P1;durP2;ratioP2;P2;SDS_P1;SDS_P2;PMS_P1;PMS_P2;Temp;Humidity;BMP_temperature;BMP_pressure;BME280_temperature;BME280_humidity;BME280_pressure;Samples;Min_cycle;Max_cycle;Signal;HPM_P1;HPM_P2
2022/06/14 00:03:13;;;;;;;2.90;1.80;;;12.70;99.90;;;;;;5045841;28;20414;-72
2022/06/14 00:05:40;;;;;;;6.20;2.00;;;12.70;99.90;;;;;;5044080;28;20427;-73
2022/06/14 00:08:08;;;;;;;1.77;1.57;;;12.60;99.90;;;;;;5043295;28;20452;-73
2022/06/14 00:10:35;;;;;;;9.60;2.80;;;12.50;99.90;;;;;;5044734;28;20827;-72
2022/06/14 00:13:02;;;;;;;2.20;1.57;;;12.60;99.90;;;;;;5045296;28;20535;-72
2022/06/14 00:15:29;;;;;;;3.13;1.67;;;12.50;99.90;;;;;;5044477;28;20819;-73
2022/06/14 00:17:56;;;;;;;5.63;1.90;;;12.60;99.90;;;;;;5037810;28;20450;-73
2022/06/14 00:20:23;;;;;;;7.87;2.10;;;12.30;99.90;;;;;;5042529;28;20431;-73
2022/06/14 00:22:50;;;;;;;5.40;1.67;;;12.00;99.90;;;;;;5042487;28;20844;-73
2022/06/14 00:25:31;;;;;;;3.73;2.03;;;12.00;99.90;;;;;;5044575;28;20443;-72
2022/06/14 00:27:58;;;;;;;2.57;1.77;;;12.00;99.90;;;;;;5046787;28;20464;-72
2022/06/14 00:30:26;;;;;;;3.60;2.10;;;12.20;99.90;;;;;;5041424;28;20448;-73
2022/06/14 00:32:53;;;;;;;3.10;1.90;;;12.10;99.90;;;;;;5044919;28;20943;-72
2022/06/14 00:35:20;;;;;;;4.50;2.53;;;12.00;99.90;;;;;;5044930;28;20431;-72
2022/06/14 00:37:47;;;;;;;2.00;1.60;;;12.10;99.90;;;;;;5042269;28;20487;-72
2022/06/14 00:40:18;;;;;;;2.70;1.67;;;12.20;99.90;;;;;;5043684;28;20441;-72
2022/06/14 00:42:46;;;;;;;6.30;1.80;;;12.00;99.90;;;;;;5047982;28;20510;-72
2022/06/14 00:45:43;;;;;;;3.50;1.67;;;12.10;99.90;;;;;;5042674;28;20542;-72
2022/06/14 00:48:14;;;;;;;2.67;2.23;;;12.20;99.90;;;;;;5029075;28;20479;-72
2022/06/14 00:50:49;;;;;;;3.10;1.93;;;12.20;99.90;;;;;;5046797;28;21474;-73
2022/06/14 00:53:20;;;;;;;2.77;1.97;;;12.30;99.90;;;;;;5037654;28;20455;-73
2022/06/14 00:55:51;;;;;;;2.17;1.97;;;12.30;99.90;;;;;;5043938;28;20437;-73
2022/06/14 00:58:23;;;;;;;2.50;2.13;;;12.20;99.90;;;;;;5044780;28;20892;-73
2022/06/14 01:00:57;;;;;;;2.73;1.40;;;12.10;99.90;;;;;;5043044;28;20447;-72
2022/06/14 01:03:27;;;;;;;3.20;1.90;;;12.00;99.90;;;;;;5042877;28;20442;-73
2022/06/14 01:06:08;;;;;;;2.23;1.87;;;12.00;99.90;;;;;;5045878;28;20452;-73
2022/06/14 01:08:40;;;;;;;2.10;1.90;;;12.10;99.90;;;;;;5043870;28;21209;-72
2022/06/14 01:11:10;;;;;;;2.00;1.60;;;12.00;99.90;;;;;;5043444;28;20433;-72
2022/06/14 01:13:39;;;;;;;4.60;1.60;;;12.00;99.90;;;;;;5043564;28;20954;-72
2022/06/14 01:16:07;;;;;;;3.20;1.70;;;12.00;99.90;;;;;;5044925;28;20507;-72
2022/06/14 01:18:35;;;;;;;6.23;1.97;;;12.00;99.90;;;;;;5041591;28;20558;-72
2022/06/14 01:21:01;;;;;;;3.40;1.87;;;12.00;99.90;;;;;;5040235;28;20442;-73
2022/06/14 01:23:30;;;;;;;2.30;1.50;;;12.00;99.90;;;;;;5042510;28;20472;-73
2022/06/14 01:26:07;;;;;;;3.70;1.67;;;12.00;99.90;;;;;;5044854;28;20568;-72
2022/06/14 01:28:36;;;;;;;1.97;1.80;;;12.00;99.90;;;;;;5040654;28;20510;-73
2022/06/14 01:31:05;;;;;;;2.03;1.60;;;12.10;99.90;;;;;;5044865;28;20418;-73
2022/06/14 01:33:36;;;;;;;6.20;2.03;;;12.20;99.90;;;;;;5040352;28;20457;-72
2022/06/14 01:36:09;;;;;;;8.10;2.60;;;12.20;99.90;;;;;;5045527;28;20874;-73
2022/06/14 01:38:37;;;;;;;3.43;2.10;;;12.20;99.90;;;;;;5039969;28;20492;-73
2022/06/14 01:41:10;;;;;;;2.80;1.90;;;12.00;99.90;;;;;;5040360;28;20490;-72
2022/06/14 01:43:50;;;;;;;4.40;2.00;;;11.90;99.90;;;;;;5045688;28;20436;-72
2022/06/14 01:46:23;;;;;;;1.70;1.60;;;11.90;99.90;;;;;;5042910;28;20426;-73
2022/06/14 01:51:50;;;;;;;2.50;2.30;;;12.00;99.90;;;;;;5043079;28;20456;-73
2022/06/14 01:51:54;;;;;;;4.03;2.13;;;11.90;99.90;;;;;;5041173;28;20448;-72
2022/06/14 01:54:31;;;;;;;2.00;1.73;;;11.90;99.90;;;;;;5042500;28;20454;-72
2022/06/14 01:57:07;;;;;;;3.60;2.80;;;11.90;99.90;;;;;;5044490;28;20467;-72
2022/06/14 01:59:43;;;;;;;3.60;1.80;;;11.90;99.90;;;;;;5042406;28;20461;-72
2022/06/14 02:02:15;;;;;;;5.67;3.37;;;11.80;99.90;;;;;;5035912;28;20461;-72
2022/06/14 02:04:45;;;;;;;5.63;2.60;;;11.80;99.90;;;;;;5047087;28;20425;-73
2022/06/14 02:07:24;;;;;;;3.20;2.37;;;11.80;99.90;;;;;;5052568;28;20474;-72
2022/06/14 02:10:02;;;;;;;4.70;1.90;;;11.80;99.90;;;;;;5050721;28;20456;-73
2022/06/14 02:12:42;;;;;;;4.37;1.97;;;11.80;99.90;;;;;;5037975;28;20433;-73
2022/06/14 02:15:18;;;;;;;7.10;2.10;;;11.60;99.90;;;;;;5046202;28;20420;-73
2022/06/14 02:18:01;;;;;;;2.40;1.73;;;11.50;99.90;;;;;;5042635;28;20478;-72
2022/06/14 02:20:33;;;;;;;2.53;1.90;;;11.50;99.90;;;;;;5037543;28;20449;-72
2022/06/14 02:23:04;;;;;;;6.10;2.03;;;11.50;99.90;;;;;;5044092;28;20450;-71
2022/06/14 02:25:37;;;;;;;2.10;1.90;;;11.40;99.90;;;;;;5041546;28;20437;-72
2022/06/14 02:28:08;;;;;;;2.50;2.17;;;11.40;99.90;;;;;;5042080;28;20461;-71
2022/06/14 02:30:39;;;;;;;5.03;2.03;;;11.50;99.90;;;;;;5040010;28;20437;-71
2022/06/14 02:33:11;;;;;;;1.90;1.70;;;11.50;99.90;;;;;;5040283;28;20434;-72
2022/06/14 02:35:44;;;;;;;2.70;2.00;;;11.60;99.90;;;;;;5034702;28;20561;-72
2022/06/14 02:38:16;;;;;;;3.30;3.00;;;11.70;99.90;;;;;;5040856;28;20459;-72
2022/06/14 02:40:50;;;;;;;2.10;1.87;;;11.70;99.90;;;;;;5039503;28;20526;-72
2022/06/14 02:43:22;;;;;;;5.60;1.97;;;11.70;99.90;;;;;;5042799;28;20429;-72
2022/06/14 02:45:53;;;;;;;4.90;2.10;;;11.70;99.90;;;;;;5038160;28;20434;-72
2022/06/14 02:48:24;;;;;;;2.87;1.80;;;11.60;99.90;;;;;;5043195;28;20468;-71
2022/06/14 02:50:56;;;;;;;2.63;1.57;;;11.70;99.90;;;;;;5039372;28;20464;-72
2022/06/14 02:53:27;;;;;;;8.73;3.00;;;11.80;99.90;;;;;;5021619;28;21996;-72
2022/06/14 02:55:59;;;;;;;3.77;2.10;;;11.90;99.90;;;;;;5033004;28;20450;-71
2022/06/14 02:58:31;;;;;;;3.10;1.70;;;11.90;99.90;;;;;;5028080;28;20486;-72
2022/06/14 03:01:04;;;;;;;16.23;2.60;;;12.00;99.90;;;;;;5027897;28;20456;-73
2022/06/14 03:03:38;;;;;;;2.53;2.03;;;12.00;99.90;;;;;;5024014;28;20434;-71
2022/06/14 03:06:45;;;;;;;2.43;1.70;;;12.00;99.90;;;;;;5026815;28;20863;-72
2022/06/14 03:09:15;;;;;;;2.97;2.13;;;12.10;99.90;;;;;;5025283;28;20430;-72
2022/06/14 03:11:53;;;;;;;2.17;1.73;;;12.10;99.90;;;;;;5034980;28;20456;-71
2022/06/14 03:14:28;;;;;;;2.47;2.20;;;12.10;99.90;;;;;;5038560;28;20454;-73
2022/06/14 03:17:09;;;;;;;2.70;2.30;;;12.10;99.90;;;;;;5033254;28;20864;-73
2022/06/14 03:19:44;;;;;;;4.43;1.90;;;12.20;99.90;;;;;;5039798;28;20441;-73
2022/06/14 03:22:19;;;;;;;4.03;2.30;;;12.10;99.90;;;;;;5039467;28;20867;-73
2022/06/14 03:24:51;;;;;;;2.33;1.70;;;12.10;99.90;;;;;;5043771;28;20458;-73
2022/06/14 03:27:28;;;;;;;10.37;2.90;;;12.10;99.90;;;;;;5046813;28;20448;-73
2022/06/14 03:30:01;;;;;;;3.93;2.03;;;12.10;99.90;;;;;;5033420;28;21247;-73
2022/06/14 03:32:34;;;;;;;5.73;2.00;;;12.20;99.90;;;;;;5037422;28;20448;-73
2022/06/14 03:35:07;;;;;;;1.80;1.53;;;12.20;99.90;;;;;;5040790;28;20940;-73
2022/06/14 03:37:34;;;;;;;4.90;2.83;;;12.10;99.90;;;;;;5045346;28;20487;-73
2022/06/14 03:40:04;;;;;;;5.00;2.77;;;11.60;99.90;;;;;;5044315;28;20445;-73
2022/06/14 03:42:33;;;;;;;11.90;3.17;;;11.80;99.90;;;;;;5046102;28;20458;-73
2022/06/14 03:45:02;;;;;;;2.50;2.30;;;11.90;99.90;;;;;;5035869;28;20445;-73
2022/06/14 03:47:30;;;;;;;6.20;2.83;;;12.00;99.90;;;;;;5085112;22;20476;-69
2022/06/14 03:50:00;;;;;;;5.53;2.70;;;12.10;99.90;;;;;;5093432;28;20463;-70
2022/06/14 03:52:59;;;;;;;5.30;2.73;;;12.10;99.90;;;;;;5102248;28;20477;-70
2022/06/14 03:55:43;;;;;;;2.43;2.07;;;12.20;99.90;;;;;;5087806;27;20428;-69
2022/06/14 03:58:30;;;;;;;9.03;2.37;;;12.30;99.90;;;;;;5087715;28;20424;-70
2022/06/14 04:00:59;;;;;;;4.13;2.27;;;12.30;99.90;;;;;;5083387;28;20435;-69
2022/06/14 04:03:50;;;;;;;6.70;2.30;;;12.20;99.90;;;;;;5083279;28;20474;-70
2022/06/14 04:06:25;;;;;;;9.87;3.10;;;12.20;99.90;;;;;;5082931;28;20478;-70
2022/06/14 04:09:02;;;;;;;5.23;2.80;;;12.30;99.90;;;;;;5077860;28;20433;-70
2022/06/14 04:11:41;;;;;;;4.43;1.90;;;12.10;99.90;;;;;;5079645;28;20453;-69
2022/06/14 04:14:20;;;;;;;4.80;2.53;;;12.20;99.90;;;;;;5079700;28;20598;-69
2022/06/14 04:16:57;;;;;;;9.40;2.80;;;12.20;99.90;;;;;;5081148;28;20467;-69
2022/06/14 04:19:36;;;;;;;14.03;3.27;;;12.10;99.90;;;;;;5081553;28;20983;-68
2022/06/14 04:22:10;;;;;;;7.90;3.57;;;12.40;99.90;;;;;;5073327;28;20459;-69
2022/06/14 04:24:44;;;;;;;3.03;2.70;;;12.60;99.90;;;;;;5076261;28;21115;-69
2022/06/14 04:27:17;;;;;;;5.77;2.47;;;12.40;99.90;;;;;;5080595;28;20485;-69
2022/06/14 04:29:51;;;;;;;5.73;2.73;;;12.50;99.90;;;;;;5077511;28;20437;-69
2022/06/14 04:32:22;;;;;;;6.00;5.40;;;12.80;99.90;;;;;;5084628;28;20413;-69
2022/06/14 04:34:55;;;;;;;25.07;4.50;;;13.00;99.90;;;;;;5080039;28;20437;-69
2022/06/14 04:37:31;;;;;;;17.80;4.37;;;13.10;99.90;;;;;;5081671;28;20470;-69
2022/06/14 04:46:14;;;;;;;37.93;4.90;;;13.10;99.90;;;;;;5038697;28;20483;-70
2022/06/14 04:48:53;;;;;;;26.43;5.57;;;13.10;99.90;;;;;;5078371;28;20465;-69
2022/06/14 04:51:34;;;;;;;24.70;3.90;;;13.20;99.90;;;;;;5071269;28;20460;-69
2022/06/14 04:54:04;;;;;;;8.30;3.70;;;13.20;99.90;;;;;;5074386;28;20432;-71
2022/06/14 04:56:37;;;;;;;7.77;3.90;;;13.00;99.90;;;;;;5079429;28;20448;-68
2022/06/14 04:59:08;;;;;;;14.57;3.53;;;13.20;99.90;;;;;;5083156;28;20438;-69
2022/06/14 05:01:45;;;;;;;5.80;4.10;;;13.40;99.90;;;;;;5077002;28;20534;-69
2022/06/14 05:04:18;;;;;;;10.40;4.00;;;13.60;99.90;;;;;;5077089;28;20470;-69
2022/06/14 05:06:49;;;;;;;5.77;3.50;;;13.80;99.90;;;;;;5082869;28;20463;-69
2022/06/14 05:09:21;;;;;;;12.63;4.20;;;14.00;99.90;;;;;;5082925;28;20545;-69
2022/06/14 05:12:01;;;;;;;6.80;3.40;;;14.10;99.90;;;;;;5082013;28;20514;-69
2022/06/14 05:14:33;;;;;;;5.20;3.33;;;14.20;99.90;;;;;;5082148;28;20428;-69
2022/06/14 05:17:09;;;;;;;5.53;3.13;;;14.40;99.90;;;;;;5081308;28;20496;-70
2022/06/14 05:19:40;;;;;;;5.90;3.43;;;14.50;99.90;;;;;;5076419;28;20462;-69
2022/06/14 05:22:13;;;;;;;18.07;5.37;;;14.90;99.90;;;;;;5081224;28;20496;-70
2022/06/14 05:24:40;;;;;;;5.50;3.10;;;15.10;99.90;;;;;;5083775;28;20833;-69
2022/06/14 05:27:21;;;;;;;4.00;3.17;;;15.50;99.90;;;;;;5082950;28;20462;-70
2022/06/14 05:30:01;;;;;;;3.07;2.23;;;15.60;99.90;;;;;;5080989;28;20811;-69
2022/06/14 05:32:34;;;;;;;7.03;3.27;;;15.80;99.90;;;;;;5080185;28;20940;-70
2022/06/14 05:35:15;;;;;;;3.23;2.67;;;15.70;99.90;;;;;;5083270;28;20449;-70
2022/06/14 05:37:47;;;;;;;3.77;3.10;;;15.60;99.90;;;;;;5081095;28;20474;-70
2022/06/14 05:40:22;;;;;;;14.20;2.77;;;15.60;99.90;;;;;;5079235;28;20522;-70
2022/06/14 05:42:55;;;;;;;8.17;3.70;;;15.50;99.90;;;;;;5083031;28;21083;-70
2022/06/14 05:45:26;;;;;;;4.60;3.10;;;15.50;99.90;;;;;;5080652;28;20489;-71
2022/06/14 05:47:58;;;;;;;4.07;2.67;;;15.70;99.90;;;;;;5081525;28;20566;-70
2022/06/14 05:50:29;;;;;;;5.27;2.73;;;16.00;99.90;;;;;;5085333;28;20446;-70
2022/06/14 05:53:03;;;;;;;5.33;2.50;;;16.00;99.90;;;;;;5080219;28;20462;-71
2022/06/14 05:55:36;;;;;;;12.70;4.10;;;16.00;99.90;;;;;;5080860;28;20450;-70
2022/06/14 05:58:09;;;;;;;9.13;2.30;;;16.10;99.90;;;;;;5081064;28;20530;-69
2022/06/14 06:00:40;;;;;;;4.60;3.00;;;16.20;99.90;;;;;;5080135;28;20449;-70
2022/06/14 06:03:16;;;;;;;7.13;2.70;;;16.30;99.90;;;;;;5082619;28;20538;-70
2022/06/14 06:05:46;;;;;;;3.73;2.40;;;16.20;99.90;;;;;;5084137;28;20505;-70
2022/06/14 06:08:17;;;;;;;4.40;2.30;;;16.40;99.90;;;;;;5079457;28;20521;-70
2022/06/14 06:10:48;;;;;;;2.87;2.10;;;16.60;99.90;;;;;;5081546;28;20522;-70
2022/06/14 06:13:24;;;;;;;4.27;2.60;;;16.60;99.90;;;;;;5084828;28;20542;-68
2022/06/14 06:15:54;;;;;;;3.70;2.87;;;16.50;99.90;;;;;;5079398;28;20537;-70
2022/06/14 06:18:25;;;;;;;8.90;2.80;;;16.60;99.90;;;;;;5080747;28;20477;-68
2022/06/14 06:20:58;;;;;;;2.43;1.97;;;16.60;99.90;;;;;;5081168;28;20446;-69
2022/06/14 06:23:30;;;;;;;3.83;2.63;;;16.70;99.90;;;;;;5082900;28;20572;-70
2022/06/14 06:25:58;;;;;;;6.33;3.00;;;17.10;99.90;;;;;;5082654;28;20450;-69
2022/06/14 06:28:27;;;;;;;7.87;2.57;;;17.60;99.90;;;;;;5082580;28;20984;-69
2022/06/14 06:30:58;;;;;;;6.73;3.10;;;18.50;99.90;;;;;;5076580;28;20451;-68
2022/06/14 06:33:30;;;;;;;4.10;2.60;;;18.90;99.90;;;;;;5082540;28;20439;-69
2022/06/14 06:36:17;;;;;;;3.43;1.83;;;18.90;99.90;;;;;;5081930;28;20975;-70
2022/06/14 06:38:57;;;;;;;8.03;2.97;;;19.30;99.90;;;;;;5075722;28;20520;-70
2022/06/14 06:44:17;;;;;;;11.90;2.77;;;19.10;99.90;;;;;;5084298;28;20523;-69
2022/06/14 06:46:49;;;;;;;5.67;2.30;;;19.10;99.90;;;;;;5081467;28;20998;-70
2022/06/14 06:49:20;;;;;;;8.50;2.27;;;18.60;99.90;;;;;;5083961;28;20521;-70
2022/06/14 06:51:52;;;;;;;4.10;2.67;;;18.60;99.90;;;;;;5083356;28;20438;-69
2022/06/14 06:54:26;;;;;;;5.03;2.67;;;19.40;99.90;;;;;;5083287;28;20447;-71
2022/06/14 06:56:56;;;;;;;5.40;2.60;;;19.90;99.90;;;;;;5080003;28;20477;-70
2022/06/14 06:59:29;;;;;;;10.57;3.00;;;20.20;99.90;;;;;;5083683;28;21680;-70
2022/06/14 07:02:00;;;;;;;4.60;2.20;;;20.10;99.90;;;;;;5081082;28;20457;-70
2022/06/14 07:07:19;;;;;;;6.97;3.17;;;20.70;99.90;;;;;;5081114;28;20486;-70
2022/06/14 07:09:49;;;;;;;3.90;2.10;;;21.40;99.90;;;;;;5086151;28;20449;-69
2022/06/14 07:12:20;;;;;;;2.27;1.60;;;21.20;99.90;;;;;;5082925;28;20541;-70
2022/06/14 07:14:54;;;;;;;9.73;2.87;;;21.40;99.90;;;;;;5082309;28;20443;-70
2022/06/14 07:17:29;;;;;;;3.30;1.77;;;21.70;99.90;;;;;;5087412;28;20565;-70
2022/06/14 07:20:02;;;;;;;9.73;2.40;;;21.30;99.90;;;;;;5090793;28;20449;-70
2022/06/14 07:25:25;;;;;;;6.23;1.70;;;21.90;99.90;;;;;;5068168;28;20456;-70
2022/06/14 07:27:57;;;;;;;5.60;2.43;;;22.00;99.90;;;;;;5083368;28;20523;-70
2022/06/14 07:30:30;;;;;;;7.37;1.97;;;22.00;99.90;;;;;;5080943;28;20817;-70
2022/06/14 07:33:01;;;;;;;7.83;2.00;;;22.60;99.90;;;;;;5081976;28;20550;-69
2022/06/14 07:35:32;;;;;;;4.30;2.10;;;21.90;99.90;;;;;;5083276;28;20435;-69
2022/06/14 07:38:08;;;;;;;4.30;1.83;;;21.80;99.90;;;;;;5083606;28;20466;-71
2022/06/14 07:40:43;;;;;;;3.13;2.30;;;22.00;99.90;;;;;;5083264;28;20526;-71
2022/06/14 07:43:16;;;;;;;6.23;2.40;;;22.60;99.90;;;;;;5084656;28;20473;-69
2022/06/14 07:45:46;;;;;;;3.40;2.20;;;23.00;99.90;;;;;;5083559;28;21973;-69
2022/06/14 07:48:18;;;;;;;6.50;2.40;;;23.50;99.90;;;;;;5082136;28;20467;-69
2022/06/14 07:50:52;;;;;;;7.97;2.90;;;23.50;99.90;;;;;;5083223;28;21361;-69
2022/06/14 07:53:26;;;;;;;5.47;2.77;;;23.10;99.90;;;;;;5085934;28;20450;-69
2022/06/14 07:55:56;;;;;;;9.57;2.50;;;22.80;99.90;;;;;;5085296;28;20615;-70
2022/06/14 07:58:30;;;;;;;2.47;1.83;;;23.20;99.90;;;;;;5083761;28;20461;-69
2022/06/14 08:01:09;;;;;;;3.33;2.00;;;24.20;99.90;;;;;;5081538;28;20979;-70
2022/06/14 08:03:40;;;;;;;4.20;1.80;;;24.30;99.90;;;;;;5084658;28;20568;-69
2022/06/14 08:06:13;;;;;;;5.30;2.20;;;23.90;99.90;;;;;;5082813;28;20561;-69
2022/06/14 08:08:44;;;;;;;4.93;2.50;;;23.00;99.90;;;;;;5084050;28;20460;-70
2022/06/14 08:11:16;;;;;;;6.03;2.10;;;23.70;99.90;;;;;;5086708;28;20450;-70
2022/06/14 08:13:49;;;;;;;3.27;1.97;;;23.50;99.90;;;;;;5085142;28;20824;-70
2022/06/14 08:16:18;;;;;;;9.73;2.93;;;22.80;99.90;;;;;;5080718;28;20585;-70
2022/06/14 08:18:50;;;;;;;3.27;2.20;;;22.30;99.90;;;;;;5085211;28;20446;-69
2022/06/14 08:21:25;;;;;;;5.30;3.20;;;21.50;99.90;;;;;;5083519;28;20529;-69
2022/06/14 08:23:56;;;;;;;3.20;2.63;;;21.10;99.90;;;;;;5085051;28;20492;-69
2022/06/14 08:26:27;;;;;;;3.43;2.50;;;20.60;99.90;;;;;;5079644;28;20883;-69
2022/06/14 08:29:00;;;;;;;8.30;3.43;;;20.10;99.90;;;;;;5085006;28;20537;-70
2022/06/14 08:31:34;;;;;;;5.10;2.60;;;19.90;99.90;;;;;;5082853;28;20537;-71
2022/06/14 08:34:10;;;;;;;4.97;2.60;;;19.40;99.90;;;;;;5075782;28;20450;-69
2022/06/14 08:36:44;;;;;;;12.13;3.07;;;19.60;99.90;;;;;;5084148;28;20485;-69
2022/06/14 08:39:16;;;;;;;6.60;3.33;;;19.90;99.90;;;;;;5079637;28;20514;-69
2022/06/14 08:41:58;;;;;;;5.70;3.23;;;19.90;99.90;;;;;;5086550;28;20551;-69
2022/06/14 08:44:32;;;;;;;6.67;3.00;;;19.60;99.90;;;;;;5083115;28;20473;-70
2022/06/14 08:47:23;;;;;;;4.07;3.10;;;19.30;99.90;;;;;;5082140;28;20810;-69
2022/06/14 08:49:59;;;;;;;6.90;2.97;;;19.40;99.90;;;;;;5082189;28;20445;-70
2022/06/14 08:52:56;;;;;;;4.37;2.73;;;19.80;99.90;;;;;;5079003;28;20536;-70
2022/06/14 08:56:06;;;;;;;4.77;3.00;;;20.10;99.90;;;;;;5055432;28;20915;-69
2022/06/14 08:59:11;;;;;;;5.43;2.70;;;20.70;99.90;;;;;;5076200;28;20483;-70
2022/06/14 09:02:01;;;;;;;3.53;2.93;;;20.90;99.90;;;;;;5078106;28;20468;-69
2022/06/14 09:04:56;;;;;;;7.90;3.57;;;21.50;99.90;;;;;;5082855;28;20505;-70
2022/06/14 09:07:55;;;;;;;5.07;2.83;;;22.30;99.90;;;;;;5085357;28;20462;-70
2022/06/14 09:10:37;;;;;;;8.47;2.90;;;24.00;99.90;;;;;;5079242;28;20549;-70
2022/06/14 09:13:34;;;;;;;4.40;2.67;;;24.70;99.90;;;;;;5081282;28;20449;-70
2022/06/14 09:16:26;;;;;;;5.23;2.97;;;25.80;99.20;;;;;;5078159;28;20874;-70
2022/06/14 09:19:02;;;;;;;3.37;2.47;;;26.50;97.70;;;;;;5073591;28;20545;-70
2022/06/14 09:21:41;;;;;;;6.87;3.13;;;26.70;95.80;;;;;;5085608;28;20438;-70
2022/06/14 09:24:15;;;;;;;3.53;2.83;;;26.70;95.10;;;;;;5082045;28;20582;-70
2022/06/14 09:27:00;;;;;;;5.93;3.50;;;26.30;93.50;;;;;;5080467;28;20477;-69
2022/06/14 09:30:01;;;;;;;4.63;2.43;;;24.80;93.90;;;;;;5079122;28;20585;-70
2022/06/14 09:33:10;;;;;;;4.77;2.90;;;24.10;95.60;;;;;;5083736;28;20875;-70
2022/06/14 09:36:31;;;;;;;5.57;3.10;;;23.40;96.60;;;;;;5082458;28;20458;-69
2022/06/14 09:39:32;;;;;;;11.67;3.23;;;23.10;97.20;;;;;;5076170;28;20526;-70
2022/06/14 09:42:42;;;;;;;5.53;2.90;;;22.80;97.20;;;;;;5081984;28;20433;-69
2022/06/14 09:45:32;;;;;;;5.97;3.17;;;22.20;96.80;;;;;;5081369;28;23593;-70
2022/06/14 09:48:26;;;;;;;4.43;2.80;;;23.50;97.90;;;;;;5080100;28;20762;-70
2022/06/14 09:51:28;;;;;;;6.57;3.13;;;25.50;94.90;;;;;;5076554;28;20593;-70
2022/06/14 09:54:31;;;;;;;5.83;3.13;;;26.50;93.00;;;;;;5048157;28;20552;-70
2022/06/14 09:57:20;;;;;;;3.43;3.13;;;25.60;90.60;;;;;;5083687;28;21150;-69
2022/06/14 10:00:21;;;;;;;6.03;3.10;;;25.60;90.30;;;;;;5082565;28;20446;-70
2022/06/14 10:03:15;;;;;;;4.37;3.47;;;25.10;91.10;;;;;;5083250;28;20511;-69
2022/06/14 10:06:01;;;;;;;5.47;3.17;;;24.60;90.00;;;;;;5046782;28;20526;-69
2022/06/14 10:08:47;;;;;;;3.40;3.10;;;24.40;91.20;;;;;;5080784;28;20450;-70
2022/06/14 10:11:35;;;;;;;7.93;4.47;;;25.10;90.50;;;;;;5083269;28;20837;-70
2022/06/14 10:14:23;;;;;;;12.07;4.13;;;25.60;92.00;;;;;;5082588;28;20430;-70
2022/06/14 10:17:07;;;;;;;3.70;3.40;;;26.60;84.90;;;;;;5078105;28;21196;-70
2022/06/14 10:19:53;;;;;;;5.93;3.27;;;26.90;85.80;;;;;;5085089;28;20456;-70
2022/06/14 10:22:30;;;;;;;6.43;2.67;;;27.40;84.10;;;;;;5082679;28;20446;-70
2022/06/14 10:25:01;;;;;;;6.47;3.33;;;26.30;86.60;;;;;;5081780;28;20496;-70
2022/06/14 10:30:37;;;;;;;3.43;3.10;;;24.80;90.00;;;;;;5081078;28;20560;-69
2022/06/14 10:33:43;;;;;;;6.70;3.30;;;24.00;90.80;;;;;;5083539;28;20782;-69
2022/06/14 10:36:44;;;;;;;4.77;3.50;;;23.50;91.50;;;;;;5060636;28;21168;-69
2022/06/14 10:39:44;;;;;;;8.73;2.97;;;24.30;94.10;;;;;;5083832;28;20448;-69
2022/06/14 10:42:18;;;;;;;6.13;2.40;;;25.70;91.80;;;;;;5085551;28;20441;-69
2022/06/14 10:44:53;;;;;;;2.60;2.40;;;26.90;86.30;;;;;;5084839;28;20486;-70
2022/06/14 10:47:35;;;;;;;4.70;2.80;;;26.60;84.50;;;;;;5085323;28;21170;-69
2022/06/14 10:50:30;;;;;;;3.60;3.17;;;26.40;88.20;;;;;;5086747;28;20454;-69
2022/06/14 10:53:20;;;;;;;7.97;2.87;;;26.80;83.20;;;;;;5074285;28;20472;-70
2022/06/14 10:56:03;;;;;;;3.97;3.47;;;27.50;79.80;;;;;;5084960;28;20466;-70
2022/06/14 10:59:01;;;;;;;4.07;3.17;;;28.60;79.10;;;;;;5083831;28;20521;-69
2022/06/14 11:01:39;;;;;;;10.40;3.60;;;29.30;76.50;;;;;;5080171;28;20454;-69
2022/06/14 11:04:16;;;;;;;6.47;3.60;;;29.10;76.20;;;;;;5084099;28;20481;-70
2022/06/14 11:07:18;;;;;;;5.30;3.50;;;28.30;74.70;;;;;;5081246;28;20850;-70
2022/06/14 11:10:06;;;;;;;5.00;3.73;;;28.00;74.00;;;;;;5084956;28;20461;-70
2022/06/14 11:12:48;;;;;;;3.90;3.00;;;29.00;75.50;;;;;;5084393;28;20462;-70
2022/06/14 11:15:20;;;;;;;7.80;3.63;;;29.40;75.10;;;;;;5087187;28;20441;-70
2022/06/14 11:18:06;;;;;;;5.37;3.03;;;29.80;71.20;;;;;;5084200;28;20527;-69
2022/06/14 11:20:47;;;;;;;4.30;3.10;;;30.00;70.70;;;;;;5085033;28;20454;-69
2022/06/14 11:23:19;;;;;;;9.80;3.00;;;29.20;67.20;;;;;;5087580;28;20445;-69
2022/06/14 11:25:53;;;;;;;7.60;2.70;;;29.10;71.50;;;;;;5085835;28;20998;-70
2022/06/14 11:28:30;;;;;;;4.37;2.87;;;29.70;68.90;;;;;;5084841;28;20467;-71
2022/06/14 11:31:06;;;;;;;3.90;2.90;;;30.10;66.50;;;;;;5081022;28;20450;-71
2022/06/14 11:33:55;;;;;;;3.37;3.10;;;30.70;62.60;;;;;;5089490;28;20461;-71
2022/06/14 11:36:39;;;;;;;7.83;3.33;;;30.00;67.00;;;;;;5086023;28;20489;-71
2022/06/14 11:39:28;;;;;;;5.90;3.57;;;30.10;65.60;;;;;;5082473;28;20461;-70
2022/06/14 11:42:00;;;;;;;4.00;3.10;;;29.70;62.30;;;;;;5081955;28;20518;-70
2022/06/14 11:44:46;;;;;;;6.67;3.93;;;30.20;63.10;;;;;;5086379;28;20930;-70
2022/06/14 11:47:18;;;;;;;4.50;3.07;;;28.90;64.20;;;;;;5086078;28;20662;-70
2022/06/14 11:49:53;;;;;;;7.53;3.47;;;29.90;64.20;;;;;;5087205;28;20452;-69
2022/06/14 11:52:31;;;;;;;8.60;3.30;;;30.50;61.00;;;;;;5085845;28;20884;-69
2022/06/14 11:55:12;;;;;;;6.37;3.60;;;30.00;59.50;;;;;;5081853;28;20454;-69
2022/06/14 11:57:50;;;;;;;4.00;2.90;;;30.10;59.60;;;;;;5085927;28;20543;-70
2022/06/14 12:00:26;;;;;;;5.50;3.30;;;30.50;62.00;;;;;;5078333;28;20551;-68
2022/06/14 12:03:00;;;;;;;9.03;3.30;;;30.70;58.40;;;;;;5083856;28;20446;-70
2022/06/14 12:05:40;;;;;;;5.63;2.80;;;30.20;59.70;;;;;;5084130;28;20483;-70
2022/06/14 12:08:22;;;;;;;5.50;3.27;;;30.80;61.40;;;;;;5084283;28;20442;-70
2022/06/14 12:10:54;;;;;;;5.90;3.10;;;31.20;59.60;;;;;;5084118;28;21526;-70
2022/06/14 12:14:02;;;;;;;3.53;2.63;;;32.00;60.80;;;;;;5086837;28;20455;-69
2022/06/14 12:16:36;;;;;;;17.07;3.57;;;32.10;58.70;;;;;;5081735;28;20537;-69
2022/06/14 12:19:08;;;;;;;9.03;3.13;;;30.10;60.00;;;;;;5085804;28;20985;-70
2022/06/14 12:21:42;;;;;;;7.50;3.20;;;29.50;59.50;;;;;;5078383;28;20555;-70
2022/06/14 12:24:16;;;;;;;3.70;3.00;;;30.30;60.30;;;;;;5083583;28;20476;-70
2022/06/14 12:26:49;;;;;;;3.00;2.57;;;29.60;57.80;;;;;;5083814;28;21753;-70
2022/06/14 12:29:21;;;;;;;4.93;2.97;;;29.70;60.20;;;;;;5080131;28;20462;-71
2022/06/14 12:32:03;;;;;;;7.17;3.00;;;30.70;58.50;;;;;;5081202;28;20442;-71
2022/06/14 12:34:36;;;;;;;3.20;2.90;;;31.30;57.40;;;;;;5083872;28;20452;-71
2022/06/14 12:37:22;;;;;;;3.13;2.83;;;31.50;58.80;;;;;;5083053;28;20562;-70
2022/06/14 12:39:55;;;;;;;4.20;2.70;;;31.50;56.70;;;;;;5065772;28;20454;-70
2022/06/14 12:42:29;;;;;;;9.23;2.77;;;32.00;56.60;;;;;;5081506;28;20456;-70
2022/06/14 12:45:02;;;;;;;3.03;2.43;;;32.20;54.60;;;;;;5081130;28;20570;-70
2022/06/14 12:47:47;;;;;;;6.37;2.60;;;31.80;54.10;;;;;;5081581;28;20486;-70
2022/06/14 12:50:21;;;;;;;10.60;3.23;;;31.90;53.30;;;;;;5081859;28;20452;-70
2022/06/14 12:52:53;;;;;;;5.17;2.77;;;31.10;55.20;;;;;;5081680;28;20470;-70
2022/06/14 12:55:25;;;;;;;4.10;2.30;;;31.40;55.10;;;;;;5080611;28;20461;-70
2022/06/14 12:58:14;;;;;;;4.53;2.23;;;31.90;55.40;;;;;;5081286;28;20569;-70
2022/06/14 13:00:52;;;;;;;4.27;2.17;;;32.60;52.40;;;;;;5078226;28;20469;-69
2022/06/14 13:03:28;;;;;;;4.17;2.20;;;32.10;52.00;;;;;;5083242;28;20457;-70
2022/06/14 13:06:04;;;;;;;3.37;2.23;;;32.30;53.50;;;;;;5081565;28;20499;-70
2022/06/14 13:08:39;;;;;;;10.10;3.07;;;32.30;52.00;;;;;;5082469;28;20438;-70
2022/06/14 13:11:15;;;;;;;8.80;2.53;;;32.50;52.40;;;;;;5082408;28;20963;-70
2022/06/14 13:13:58;;;;;;;5.43;2.57;;;31.60;52.40;;;;;;5082567;28;20498;-70
2022/06/14 13:16:48;;;;;;;7.47;4.03;;;32.20;52.30;;;;;;5081245;28;20485;-70
2022/06/14 13:19:23;;;;;;;5.33;4.63;;;31.70;53.00;;;;;;5082726;28;21086;-71
2022/06/14 13:22:34;;;;;;;4.97;2.33;;;32.10;52.20;;;;;;5079624;28;20444;-71
2022/06/14 13:25:22;;;;;;;3.73;2.40;;;32.40;52.40;;;;;;5033910;28;21132;-71
2022/06/14 13:28:01;;;;;;;3.70;2.10;;;32.40;51.40;;;;;;5084416;28;20493;-71
2022/06/14 13:30:36;;;;;;;2.70;2.37;;;32.20;52.20;;;;;;5076523;28;20446;-70
2022/06/14 13:33:19;;;;;;;6.97;2.80;;;32.10;51.10;;;;;;5075182;28;20466;-71
2022/06/14 13:35:53;;;;;;;10.50;3.90;;;31.80;51.40;;;;;;5084096;28;20431;-71
2022/06/14 13:38:28;;;;;;;3.90;2.67;;;31.30;50.90;;;;;;5080755;28;20589;-70
2022/06/14 13:41:00;;;;;;;4.07;2.07;;;31.00;52.70;;;;;;5080634;28;20841;-70
2022/06/14 13:43:33;;;;;;;2.80;2.40;;;30.90;52.00;;;;;;5080868;28;20627;-70
2022/06/14 13:46:05;;;;;;;4.50;2.47;;;30.10;51.10;;;;;;5078602;28;20485;-71
2022/06/14 13:48:40;;;;;;;4.53;2.47;;;28.70;54.90;;;;;;5083058;28;20451;-69
2022/06/14 13:51:27;;;;;;;2.47;1.90;;;28.30;55.50;;;;;;5082803;28;20480;-70
2022/06/14 13:54:00;;;;;;;8.67;2.00;;;28.00;56.90;;;;;;5079889;28;20443;-68
2022/06/14 13:56:35;;;;;;;3.63;2.23;;;27.30;57.50;;;;;;5081058;28;20465;-71